createdAt,value
2022-10-19T00:00:51.149Z,106.00
2022-10-19T00:01:51.210Z,101.90
2022-10-19T00:02:51.131Z,85.10
2022-10-19T00:03:51.164Z,98.80
2022-10-19T00:04:51.135Z,106.90
2022-10-19T00:05:51.113Z,201.90
2022-10-19T00:06:51.094Z,216.20
2022-10-19T00:07:51.092Z,90.50
2022-10-19T00:08:51.067Z,54.00
2022-10-19T00:09:51.067Z,68.20
2022-10-19T00:10:51.088Z,114.50
2022-10-19T00:11:51.051Z,96.10
2022-10-19T00:12:51.061Z,103.00
2022-10-19T00:13:51.036Z,144.60
2022-10-19T00:14:51.021Z,105.60
2022-10-19T00:15:51.013Z,119.30
2022-10-19T00:16:51.029Z,80.70
2022-10-19T00:17:51.048Z,45.60
2022-10-19T00:18:50.987Z,72.60
2022-10-19T00:19:50.979Z,59.00
2022-10-19T00:20:50.972Z,148.40
2022-10-19T00:22:50.970Z,74.00
2022-10-19T00:23:50.955Z,397.60
2022-10-19T00:24:50.944Z,36.60
2022-10-19T00:25:50.953Z,153.70
2022-10-19T00:26:50.947Z,134.70
2022-10-19T00:27:50.942Z,223.50
2022-10-19T00:28:51.025Z,119.00
2022-10-19T00:29:50.898Z,304.40
2022-10-19T00:30:50.908Z,406.40
2022-10-19T00:31:50.882Z,475.00
2022-10-19T00:32:50.887Z,735.50
2022-10-19T00:33:50.886Z,655.70
2022-10-19T00:34:50.878Z,733.20
2022-10-19T00:35:50.849Z,494.90
2022-10-19T00:36:50.853Z,294.70
2022-10-19T00:37:50.825Z,182.70
2022-10-19T00:38:50.837Z,107.20
2022-10-19T00:40:50.815Z,410.00
2022-10-19T00:41:50.798Z,781.40
2022-10-19T00:42:50.797Z,615.70
2022-10-19T00:43:50.782Z,690.80
2022-10-19T00:44:50.794Z,533.70
2022-10-19T00:45:50.765Z,359.70
2022-10-19T00:46:50.753Z,520.90
2022-10-19T00:47:50.746Z,620.00
2022-10-19T00:48:50.747Z,421.50
2022-10-19T00:49:50.731Z,190.60
2022-10-19T00:50:50.740Z,427.40
2022-10-19T00:51:50.713Z,427.90
2022-10-19T00:52:50.702Z,197.80
2022-10-19T00:53:50.698Z,612.60
2022-10-19T00:54:50.692Z,165.80
2022-10-19T00:55:50.681Z,363.60
2022-10-19T00:56:50.704Z,491.90
2022-10-19T00:58:50.666Z,86.00
2022-10-19T00:59:50.654Z,75.40
2022-10-19T01:00:50.683Z,50.20
2022-10-19T01:01:50.642Z,54.70
2022-10-19T01:02:50.694Z,67.30
2022-10-19T01:03:50.634Z,47.90
2022-10-19T01:04:50.613Z,44.70
2022-10-19T01:05:50.607Z,46.60
2022-10-19T01:07:50.592Z,419.90
2022-10-19T01:08:50.607Z,237.20
2022-10-19T01:09:50.582Z,256.90
2022-10-19T01:10:50.574Z,264.00
2022-10-19T01:11:50.564Z,367.50
2022-10-19T01:12:50.557Z,220.00
2022-10-19T01:13:50.556Z,353.10
2022-10-19T01:14:50.574Z,351.40
2022-10-19T01:15:50.636Z,222.50
2022-10-19T01:16:50.521Z,272.10
2022-10-19T01:17:50.517Z,353.60
2022-10-19T01:18:50.536Z,278.90
2022-10-19T01:19:50.493Z,332.50
2022-10-19T01:20:50.521Z,328.30
2022-10-19T01:21:50.483Z,76.00
2022-10-19T01:22:50.475Z,105.90
2022-10-19T01:23:50.471Z,88.10
2022-10-19T01:24:50.505Z,59.10
2022-10-19T01:25:50.460Z,153.20
2022-10-19T01:26:50.480Z,253.50
2022-10-19T01:27:50.446Z,119.70
2022-10-19T01:28:50.535Z,95.70
2022-10-19T01:29:50.421Z,83.00
2022-10-19T01:30:50.441Z,87.40
2022-10-19T01:31:50.420Z,18.30
2022-10-19T01:32:50.397Z,32.40
2022-10-19T01:33:50.451Z,12.40
2022-10-19T01:34:50.387Z,12.50
2022-10-19T01:35:50.380Z,13.20
2022-10-19T01:36:50.375Z,11.30
2022-10-19T01:37:50.365Z,12.50
2022-10-19T01:38:50.380Z,10.20
2022-10-19T01:39:50.363Z,26.10
2022-10-19T01:40:50.392Z,73.30
2022-10-19T01:41:50.331Z,48.30
2022-10-19T01:42:50.375Z,89.20
2022-10-19T01:43:50.320Z,67.20
2022-10-19T01:44:50.312Z,56.70
2022-10-19T01:45:50.309Z,150.90
2022-10-19T01:46:50.308Z,83.70
2022-10-19T01:47:50.288Z,38.60
2022-10-19T01:48:50.279Z,123.80
2022-10-19T01:49:50.274Z,68.30
2022-10-19T01:50:50.269Z,77.70
2022-10-19T01:51:50.294Z,241.10
2022-10-19T01:52:50.255Z,115.00
2022-10-19T01:53:50.240Z,196.50
2022-10-19T01:54:50.233Z,284.30
2022-10-19T01:55:50.222Z,243.80
2022-10-19T01:56:50.234Z,230.10
2022-10-19T01:57:50.222Z,144.50
2022-10-19T01:58:50.206Z,35.00
2022-10-19T01:59:50.195Z,19.40
2022-10-19T02:00:50.276Z,25.80
2022-10-19T02:01:50.177Z,18.50
2022-10-19T02:02:50.277Z,10.80
2022-10-19T02:03:50.180Z,12.40
2022-10-19T02:04:50.165Z,13.40
2022-10-19T02:05:50.170Z,14.10
2022-10-19T02:06:50.202Z,14.30
2022-10-19T02:07:50.138Z,16.10
2022-10-19T02:08:50.130Z,12.20
2022-10-19T02:09:50.111Z,10.70
2022-10-19T02:10:50.121Z,19.30
2022-10-19T02:11:51.336Z,24.80
2022-10-19T02:12:50.116Z,17.40
2022-10-19T02:13:50.107Z,19.00
2022-10-19T02:14:50.102Z,12.10
2022-10-19T02:15:50.074Z,18.70
2022-10-19T02:16:50.066Z,11.00
2022-10-19T02:17:50.061Z,18.70
2022-10-19T02:18:50.084Z,11.30
2022-10-19T02:19:50.040Z,13.60
2022-10-19T02:20:50.041Z,7.80
2022-10-19T02:21:50.032Z,12.30
2022-10-19T02:22:50.030Z,10.00
2022-10-19T02:23:51.887Z,10.20
2022-10-19T02:24:50.026Z,11.10
2022-10-19T02:25:50.001Z,9.60
2022-10-19T02:26:50.028Z,9.00
2022-10-19T02:27:50.020Z,8.50
2022-10-19T02:28:49.982Z,11.10
2022-10-19T02:29:49.968Z,8.60
2022-10-19T02:30:49.973Z,14.10
2022-10-19T02:31:49.960Z,23.90
2022-10-19T02:32:49.959Z,11.20
2022-10-19T02:33:49.968Z,16.50
2022-10-19T02:34:49.937Z,25.20
2022-10-19T02:35:49.925Z,16.00
2022-10-19T02:36:49.921Z,15.50
2022-10-19T02:37:49.913Z,11.70
2022-10-19T02:38:49.909Z,16.00
2022-10-19T02:39:49.921Z,13.70
2022-10-19T02:40:49.898Z,13.30
2022-10-19T02:41:49.886Z,10.60
2022-10-19T02:42:49.903Z,13.20
2022-10-19T02:43:49.890Z,14.00
2022-10-19T02:44:49.871Z,16.50
2022-10-19T02:45:49.877Z,21.10
2022-10-19T02:46:49.877Z,24.00
2022-10-19T02:47:49.841Z,18.10
2022-10-19T02:48:49.845Z,13.90
2022-10-19T02:49:49.834Z,9.40
2022-10-19T02:50:49.822Z,7.50
2022-10-19T02:51:49.815Z,10.00
2022-10-19T02:52:49.833Z,8.40
2022-10-19T02:53:49.802Z,10.30
2022-10-19T02:54:49.792Z,12.50
2022-10-19T02:55:49.785Z,11.60
2022-10-19T02:56:49.781Z,11.40
2022-10-19T02:57:49.822Z,18.80
2022-10-19T02:58:49.798Z,10.80
2022-10-19T02:59:49.757Z,9.30
2022-10-19T03:00:49.873Z,12.30
2022-10-19T03:01:49.742Z,14.20
2022-10-19T03:02:49.738Z,11.00
2022-10-19T03:03:49.780Z,9.90
2022-10-19T03:04:49.774Z,9.20
2022-10-19T03:05:49.707Z,10.20
2022-10-19T03:06:49.709Z,10.50
2022-10-19T03:07:49.695Z,13.00
2022-10-19T03:08:49.700Z,11.50
2022-10-19T03:09:49.687Z,49.70
2022-10-19T03:10:49.691Z,23.10
2022-10-19T03:11:49.667Z,11.30
2022-10-19T03:12:49.651Z,12.90
2022-10-19T03:13:49.649Z,13.20
2022-10-19T03:14:49.661Z,21.50
2022-10-19T03:15:49.632Z,142.50
2022-10-19T03:16:49.620Z,96.10
2022-10-19T03:17:49.636Z,18.20
2022-10-19T03:18:49.603Z,11.10
2022-10-19T03:19:49.604Z,28.90
2022-10-19T03:20:49.596Z,12.90
2022-10-19T03:21:49.581Z,21.40
2022-10-19T03:22:49.604Z,19.90
2022-10-19T03:23:49.588Z,13.00
2022-10-19T03:24:49.601Z,19.30
2022-10-19T03:25:49.556Z,41.60
2022-10-19T03:26:49.551Z,36.00
2022-10-19T03:27:49.539Z,34.40
2022-10-19T03:28:49.559Z,12.10
2022-10-19T03:29:49.531Z,17.10
2022-10-19T03:30:49.532Z,9.80
2022-10-19T03:31:49.510Z,11.40
2022-10-19T03:32:49.505Z,22.80
2022-10-19T03:33:49.517Z,16.40
2022-10-19T03:34:49.490Z,19.80
2022-10-19T03:35:49.471Z,11.70
2022-10-19T03:36:49.481Z,11.30
2022-10-19T03:37:49.470Z,11.10
2022-10-19T03:38:49.468Z,14.30
2022-10-19T03:39:49.465Z,8.80
2022-10-19T03:40:49.452Z,16.90
2022-10-19T03:41:49.437Z,12.00
2022-10-19T03:42:49.427Z,10.90
2022-10-19T03:43:49.475Z,9.60
2022-10-19T03:44:49.413Z,8.70
2022-10-19T03:45:49.413Z,12.30
2022-10-19T03:46:49.401Z,9.10
2022-10-19T03:47:49.447Z,12.50
2022-10-19T03:48:49.383Z,7.90
2022-10-19T03:49:49.411Z,11.30
2022-10-19T03:50:49.369Z,16.20
2022-10-19T03:51:49.361Z,11.60
2022-10-19T03:52:49.435Z,9.00
2022-10-19T03:53:49.361Z,8.60
2022-10-19T03:54:49.331Z,10.30
2022-10-19T03:55:49.327Z,11.30
2022-10-19T03:56:49.355Z,9.30
2022-10-19T03:57:49.335Z,18.40
2022-10-19T03:58:49.309Z,11.30
2022-10-19T03:59:49.320Z,7.00
2022-10-19T04:00:49.353Z,14.40
2022-10-19T04:01:49.310Z,10.50
2022-10-19T04:02:49.284Z,7.90
2022-10-19T04:03:49.277Z,8.10
2022-10-19T04:04:49.271Z,9.20
2022-10-19T04:05:49.261Z,13.20
2022-10-19T04:06:49.251Z,10.20
2022-10-19T04:07:49.263Z,11.10
2022-10-19T04:08:49.240Z,7.10
2022-10-19T04:09:49.243Z,11.40
2022-10-19T04:10:49.249Z,10.00
2022-10-19T04:11:49.214Z,8.40
2022-10-19T04:12:53.664Z,11.90
2022-10-19T04:13:49.199Z,14.40
2022-10-19T04:14:57.693Z,7.20
2022-10-19T04:15:50.202Z,7.10
2022-10-19T04:16:49.202Z,11.10
2022-10-19T04:17:49.173Z,6.10
2022-10-19T04:18:49.170Z,8.90
2022-10-19T04:19:49.158Z,10.90
2022-10-19T04:20:49.161Z,10.20
2022-10-19T04:21:49.146Z,10.10
2022-10-19T04:22:49.163Z,10.70
2022-10-19T04:23:49.127Z,13.20
2022-10-19T04:24:49.121Z,13.50
2022-10-19T04:25:49.120Z,10.00
2022-10-19T04:26:49.105Z,10.50
2022-10-19T04:27:49.096Z,8.70
2022-10-19T04:28:49.154Z,15.90
2022-10-19T04:29:49.101Z,13.20
2022-10-19T04:30:49.065Z,9.40
2022-10-19T04:31:49.069Z,10.30
2022-10-19T04:32:49.063Z,8.80
2022-10-19T04:33:49.060Z,11.00
2022-10-19T04:34:49.064Z,9.20
2022-10-19T04:35:49.037Z,11.00
2022-10-19T04:36:49.034Z,8.70
2022-10-19T04:37:49.018Z,19.00
2022-10-19T04:38:49.017Z,15.50
2022-10-19T04:39:49.000Z,9.70
2022-10-19T04:40:49.017Z,9.50
2022-10-19T04:41:48.985Z,38.50
2022-10-19T04:42:48.981Z,134.00
2022-10-19T04:43:48.981Z,21.90
2022-10-19T04:44:48.969Z,14.00
2022-10-19T04:45:48.954Z,13.70
2022-10-19T04:46:48.971Z,7.60
2022-10-19T04:47:48.938Z,15.80
2022-10-19T04:48:48.937Z,8.00
2022-10-19T04:49:48.927Z,7.80
2022-10-19T04:50:48.925Z,7.10
2022-10-19T04:51:48.923Z,10.70
2022-10-19T04:52:48.913Z,12.50
2022-10-19T04:53:48.894Z,10.70
2022-10-19T04:54:48.908Z,8.00
2022-10-19T04:55:48.881Z,8.20
2022-10-19T04:56:48.876Z,14.50
2022-10-19T04:57:48.872Z,41.90
2022-10-19T04:58:48.851Z,21.90
2022-10-19T04:59:48.838Z,16.90
2022-10-19T05:00:48.875Z,19.80
2022-10-19T05:01:48.852Z,8.80
2022-10-19T05:02:48.833Z,10.70
2022-10-19T05:03:48.851Z,23.30
2022-10-19T05:04:48.857Z,47.60
2022-10-19T05:05:48.796Z,130.60
2022-10-19T05:06:48.788Z,61.80
2022-10-19T05:07:48.787Z,15.50
2022-10-19T05:08:48.784Z,10.70
2022-10-19T05:09:48.791Z,16.40
2022-10-19T05:10:48.781Z,41.90
2022-10-19T05:11:48.754Z,50.10
2022-10-19T05:12:48.741Z,38.10
2022-10-19T05:13:48.734Z,202.60
2022-10-19T05:14:48.796Z,57.00
2022-10-19T05:15:48.721Z,21.90
2022-10-19T05:16:48.724Z,94.70
2022-10-19T05:17:48.708Z,51.90
2022-10-19T05:18:48.705Z,42.70
2022-10-19T05:19:48.700Z,51.30
2022-10-19T05:20:48.710Z,65.00
2022-10-19T05:21:48.681Z,44.80
2022-10-19T05:22:48.682Z,10.00
2022-10-19T05:23:48.673Z,29.50
2022-10-19T05:24:48.667Z,25.60
2022-10-19T05:25:48.668Z,9.10
2022-10-19T05:26:48.667Z,8.30
2022-10-19T05:27:48.640Z,9.70
2022-10-19T05:28:48.685Z,12.70
2022-10-19T05:29:48.624Z,16.40
2022-10-19T05:30:49.126Z,6.70
2022-10-19T05:31:48.640Z,16.80
2022-10-19T05:32:48.603Z,11.40
2022-10-19T05:33:48.595Z,27.90
2022-10-19T05:34:48.585Z,11.10
2022-10-19T05:35:48.587Z,13.10
2022-10-19T05:36:48.569Z,13.70
2022-10-19T05:37:48.582Z,176.60
2022-10-19T05:38:48.558Z,71.40
2022-10-19T05:39:48.545Z,97.50
2022-10-19T05:40:52.954Z,55.90
2022-10-19T05:41:49.529Z,98.40
2022-10-19T05:42:48.530Z,60.10
2022-10-19T05:43:48.527Z,43.00
2022-10-19T05:44:48.542Z,14.00
2022-10-19T05:45:48.499Z,205.80
2022-10-19T05:46:48.494Z,72.00
2022-10-19T05:47:48.490Z,48.90
2022-10-19T05:48:48.481Z,91.80
2022-10-19T05:49:48.473Z,308.40
2022-10-19T05:50:48.484Z,145.50
2022-10-19T05:51:48.453Z,96.20
2022-10-19T05:52:48.455Z,12.60
2022-10-19T05:53:48.466Z,11.20
2022-10-19T05:54:48.445Z,77.80
2022-10-19T05:55:48.442Z,131.70
2022-10-19T05:56:48.423Z,15.30
2022-10-19T05:57:48.461Z,161.50
2022-10-19T05:58:48.399Z,20.80
2022-10-19T05:59:48.397Z,13.00
2022-10-19T06:00:48.390Z,49.10
2022-10-19T06:01:48.434Z,14.20
2022-10-19T06:02:48.373Z,29.40
2022-10-19T06:03:48.384Z,42.20
2022-10-19T06:04:48.389Z,18.80
2022-10-19T06:05:48.362Z,42.90
2022-10-19T06:06:48.350Z,122.90
2022-10-19T06:07:48.344Z,42.60
2022-10-19T06:08:48.366Z,45.40
2022-10-19T06:09:48.337Z,14.90
2022-10-19T06:10:48.337Z,9.90
2022-10-19T06:11:48.319Z,15.20
2022-10-19T06:12:48.305Z,23.80
2022-10-19T06:13:48.324Z,23.40
2022-10-19T06:14:48.360Z,9.70
2022-10-19T06:15:48.294Z,57.40
2022-10-19T06:16:48.281Z,7.00
2022-10-19T06:17:48.263Z,45.20
2022-10-19T06:18:48.274Z,36.30
2022-10-19T06:19:48.255Z,263.80
2022-10-19T06:20:48.273Z,90.10
2022-10-19T06:21:48.264Z,15.70
2022-10-19T06:22:48.234Z,15.00
2022-10-19T06:23:48.237Z,9.00
2022-10-19T06:24:48.225Z,36.90
2022-10-19T06:25:48.214Z,41.30
2022-10-19T06:26:48.226Z,76.30
2022-10-19T06:27:48.228Z,76.70
2022-10-19T06:28:48.194Z,11.50
2022-10-19T06:29:48.179Z,12.00
2022-10-19T06:30:48.260Z,8.80
2022-10-19T06:31:48.183Z,13.70
2022-10-19T06:32:48.261Z,32.20
2022-10-19T06:33:49.471Z,8.40
2022-10-19T06:34:48.841Z,8.00
2022-10-19T06:35:48.153Z,9.10
2022-10-19T06:36:48.136Z,70.10
2022-10-19T06:37:48.121Z,16.60
2022-10-19T06:38:48.150Z,10.00
2022-10-19T06:39:48.145Z,28.00
2022-10-19T06:40:48.105Z,9.80
2022-10-19T06:41:48.101Z,41.20
2022-10-19T06:42:48.110Z,11.90
2022-10-19T06:43:48.090Z,12.80
2022-10-19T06:44:48.100Z,35.30
2022-10-19T06:45:48.093Z,8.70
2022-10-19T06:46:48.067Z,133.90
2022-10-19T06:48:48.045Z,34.80
2022-10-19T06:49:48.070Z,21.40
2022-10-19T06:50:48.034Z,26.10
2022-10-19T06:51:48.030Z,84.00
2022-10-19T06:52:48.014Z,17.30
2022-10-19T06:53:49.708Z,27.10
2022-10-19T06:54:49.014Z,40.50
2022-10-19T06:55:48.000Z,18.70
2022-10-19T06:57:47.978Z,171.00
2022-10-19T06:58:47.973Z,215.70
2022-10-19T06:59:50.186Z,188.90
2022-10-19T07:00:48.012Z,13.60
2022-10-19T07:01:47.976Z,11.30
2022-10-19T07:02:47.939Z,14.50
2022-10-19T07:03:47.929Z,234.30
2022-10-19T07:04:47.929Z,211.20
2022-10-19T07:05:47.916Z,43.00
2022-10-19T07:06:47.915Z,185.30
2022-10-19T07:07:47.947Z,44.00
2022-10-19T07:08:47.894Z,20.60
2022-10-19T07:09:47.887Z,20.40
2022-10-19T07:10:47.882Z,16.10
2022-10-19T07:11:47.862Z,13.10
2022-10-19T07:12:47.865Z,47.80
2022-10-19T07:13:47.880Z,153.80
2022-10-19T07:14:47.849Z,137.30
2022-10-19T07:15:47.834Z,39.70
2022-10-19T07:16:47.852Z,19.20
2022-10-19T07:17:47.830Z,278.70
2022-10-19T07:18:47.825Z,26.60
2022-10-19T07:19:47.813Z,70.10
2022-10-19T07:20:47.800Z,276.50
2022-10-19T07:21:47.785Z,389.70
2022-10-19T07:22:47.805Z,352.30
2022-10-19T07:23:47.799Z,215.30
2022-10-19T07:24:47.769Z,250.40
2022-10-19T07:25:47.762Z,277.70
2022-10-19T07:26:47.770Z,243.40
2022-10-19T07:27:47.755Z,378.10
2022-10-19T07:28:47.740Z,414.90
2022-10-19T07:29:47.742Z,178.00
2022-10-19T07:30:47.724Z,325.30
2022-10-19T07:31:47.712Z,175.90
2022-10-19T07:32:47.703Z,70.60
2022-10-19T07:33:47.692Z,24.90
2022-10-19T07:34:47.712Z,204.50
2022-10-19T07:35:47.690Z,304.50
2022-10-19T07:36:47.675Z,348.30
2022-10-19T07:37:47.669Z,32.10
2022-10-19T07:38:47.667Z,165.50
2022-10-19T07:39:47.650Z,113.80
2022-10-19T07:43:33.196Z,319.00
2022-10-19T07:44:19.268Z,222.30
2022-10-19T07:45:19.252Z,625.70
2022-10-19T07:46:19.274Z,269.10
2022-10-19T07:47:19.264Z,178.70
2022-10-19T07:48:19.237Z,107.20
2022-10-19T07:49:19.229Z,126.50
2022-10-19T07:50:19.232Z,104.70
2022-10-19T07:51:19.252Z,284.20
2022-10-19T07:52:19.233Z,215.50
2022-10-19T07:53:19.197Z,231.40
2022-10-19T07:54:19.196Z,95.80
2022-10-19T07:55:19.209Z,136.30
2022-10-19T07:56:19.186Z,371.70
2022-10-19T07:57:19.182Z,299.50
2022-10-19T07:58:19.291Z,92.00
2022-10-19T07:59:19.176Z,106.00
2022-10-19T08:00:19.155Z,398.90
2022-10-19T08:01:19.136Z,403.20
2022-10-19T08:02:19.163Z,216.40
2022-10-19T08:04:13.848Z,305.20
2022-10-19T08:05:20.188Z,297.80
2022-10-19T08:06:19.095Z,184.80
2022-10-19T08:07:19.111Z,261.30
2022-10-19T08:08:19.083Z,118.20
2022-10-19T08:09:47.342Z,172.70
2022-10-19T08:10:20.108Z,368.80
2022-10-19T08:11:19.073Z,91.20
2022-10-19T08:12:19.064Z,20.40
2022-10-19T08:13:19.043Z,122.70
2022-10-19T08:14:19.041Z,462.60
2022-10-19T08:15:19.049Z,224.70
2022-10-19T08:16:19.023Z,146.40
2022-10-19T08:17:19.046Z,117.80
2022-10-19T08:18:19.050Z,130.20
2022-10-19T08:19:18.993Z,253.90
2022-10-19T08:20:19.002Z,111.40
2022-10-19T08:21:18.984Z,130.80
2022-10-19T08:22:18.973Z,66.40
2022-10-19T08:23:18.988Z,38.20
2022-10-19T08:24:18.988Z,187.90
2022-10-19T08:25:18.968Z,157.20
2022-10-19T08:26:18.950Z,305.00
2022-10-19T08:27:18.930Z,444.90
2022-10-19T08:28:18.931Z,172.20
2022-10-19T08:29:18.963Z,62.70
2022-10-19T08:30:18.919Z,36.00
2022-10-19T08:31:18.959Z,23.00
2022-10-19T08:32:18.894Z,26.30
2022-10-19T08:33:18.892Z,173.30
2022-10-19T08:34:18.900Z,338.40
2022-10-19T08:35:18.865Z,23.60
2022-10-19T08:36:18.864Z,105.70
2022-10-19T08:37:26.374Z,63.40
2022-10-19T08:38:19.846Z,52.90
2022-10-19T08:39:18.837Z,129.70
2022-10-19T08:40:18.835Z,121.70
2022-10-19T08:41:18.845Z,21.40
2022-10-19T08:42:18.811Z,81.60
2022-10-19T08:43:18.817Z,34.70
2022-10-19T08:44:18.799Z,24.50
2022-10-19T08:45:18.789Z,20.10
2022-10-19T08:46:18.800Z,17.30
2022-10-19T08:47:23.253Z,18.20
2022-10-19T08:48:18.783Z,15.40
2022-10-19T08:49:18.778Z,17.60
2022-10-19T08:50:18.753Z,17.20
2022-10-19T08:51:18.761Z,17.50
2022-10-19T08:52:18.761Z,14.30
2022-10-19T08:53:18.733Z,17.40
2022-10-19T08:54:18.722Z,13.20
2022-10-19T08:55:20.569Z,15.70
2022-10-19T08:56:38.863Z,15.20
2022-10-19T08:57:19.697Z,16.90
2022-10-19T08:58:18.688Z,15.90
2022-10-19T08:59:18.679Z,12.80
2022-10-19T09:00:18.682Z,11.20
2022-10-19T09:01:18.700Z,11.50
2022-10-19T09:02:18.660Z,12.60
2022-10-19T09:03:27.130Z,12.40
2022-10-19T09:04:19.652Z,12.70
2022-10-19T09:05:18.630Z,12.10
2022-10-19T09:06:18.628Z,13.90
2022-10-19T09:07:18.640Z,9.40
2022-10-19T09:08:18.606Z,9.40
2022-10-19T09:09:18.602Z,10.00
2022-10-19T09:10:18.589Z,10.30
2022-10-19T09:11:18.589Z,14.90
2022-10-19T09:12:18.577Z,10.80
2022-10-19T09:13:18.587Z,12.20
2022-10-19T09:14:18.554Z,9.60
2022-10-19T09:15:18.560Z,11.30
2022-10-19T09:16:18.538Z,11.20
2022-10-19T09:17:18.535Z,11.50
2022-10-19T09:18:18.549Z,10.80
2022-10-19T09:19:18.520Z,8.70
2022-10-19T09:20:18.561Z,9.50
2022-10-19T09:21:18.495Z,10.70
2022-10-19T09:22:18.498Z,11.40
2022-10-19T09:23:18.487Z,10.30
2022-10-19T09:24:18.498Z,8.80
2022-10-19T09:25:18.472Z,9.40
2022-10-19T09:26:18.464Z,11.10
2022-10-19T09:27:18.458Z,11.00
2022-10-19T09:28:18.465Z,12.10
2022-10-19T09:29:18.441Z,11.40
2022-10-19T09:30:18.513Z,10.00
2022-10-19T09:31:18.426Z,10.30
2022-10-19T09:32:18.424Z,8.70
2022-10-19T09:33:18.430Z,8.60
2022-10-19T09:34:18.411Z,8.60
2022-10-19T09:35:18.425Z,9.10
2022-10-19T09:36:23.047Z,8.70
2022-10-19T09:37:25.708Z,8.70
2022-10-19T09:38:19.384Z,9.60
2022-10-19T09:39:18.370Z,13.20
2022-10-19T09:40:18.419Z,9.40
2022-10-19T09:41:18.378Z,9.50
2022-10-19T09:42:18.352Z,12.90
2022-10-19T09:43:18.342Z,9.00
2022-10-19T09:44:18.330Z,8.90
2022-10-19T09:45:18.331Z,9.00
2022-10-19T09:46:20.316Z,10.40
2022-10-19T09:47:18.344Z,9.90
2022-10-19T09:48:18.326Z,10.20
2022-10-19T09:49:18.298Z,8.40
2022-10-19T09:50:18.386Z,8.80
2022-10-19T09:51:18.314Z,6.80
2022-10-19T09:52:18.290Z,9.00
2022-10-19T09:53:18.271Z,7.70
2022-10-19T09:54:18.286Z,10.20
2022-10-19T09:55:18.260Z,8.10
2022-10-19T09:56:18.250Z,7.10
2022-10-19T09:57:18.266Z,6.70
2022-10-19T09:58:18.259Z,7.10
2022-10-19T09:59:18.230Z,8.80
2022-10-19T10:00:18.221Z,5.50
2022-10-19T10:01:18.240Z,6.10
2022-10-19T10:02:18.224Z,9.30
2022-10-19T10:03:18.207Z,7.80
2022-10-19T10:04:18.200Z,8.60
2022-10-19T10:05:18.197Z,9.20
2022-10-19T10:06:18.209Z,6.70
2022-10-19T10:07:18.184Z,7.80
2022-10-19T10:08:18.166Z,6.80
2022-10-19T10:09:18.169Z,8.10
2022-10-19T10:10:18.167Z,6.90
2022-10-19T10:11:18.180Z,5.00
2022-10-19T10:12:18.143Z,9.50
2022-10-19T10:13:18.131Z,5.80
2022-10-19T10:14:18.131Z,9.40
2022-10-19T10:15:18.121Z,6.60
2022-10-19T10:16:18.124Z,6.20
2022-10-19T10:17:18.134Z,5.40
2022-10-19T10:18:18.113Z,7.10
2022-10-19T10:19:18.117Z,6.90
2022-10-19T10:20:18.090Z,6.40
2022-10-19T10:21:20.537Z,6.20
2022-10-19T10:22:18.095Z,8.80
2022-10-19T10:23:18.066Z,7.60
2022-10-19T10:24:18.062Z,12.00
2022-10-19T10:25:18.082Z,6.60
2022-10-19T10:26:18.041Z,10.70
2022-10-19T10:27:18.031Z,5.90
2022-10-19T10:28:18.033Z,8.00
2022-10-19T10:29:18.027Z,7.80
2022-10-19T10:30:18.011Z,6.60
2022-10-19T10:31:18.034Z,7.20
2022-10-19T10:32:17.999Z,6.90
2022-10-19T10:33:26.910Z,5.20
2022-10-19T10:34:23.164Z,6.10
2022-10-19T10:35:18.981Z,7.10
2022-10-19T10:36:18.007Z,6.60
2022-10-19T10:37:17.967Z,7.00
2022-10-19T10:38:17.951Z,10.10
2022-10-19T10:39:17.962Z,6.00
2022-10-19T10:40:21.330Z,6.50
2022-10-19T10:41:17.974Z,7.10
2022-10-19T10:42:17.929Z,7.30
2022-10-19T10:43:17.925Z,7.60
2022-10-19T10:44:17.934Z,7.00
2022-10-19T10:45:17.910Z,5.20
2022-10-19T10:46:17.916Z,7.70
2022-10-19T10:47:17.923Z,7.90
2022-10-19T10:48:17.907Z,8.40
2022-10-19T10:49:17.872Z,6.30
2022-10-19T10:50:17.868Z,6.70
2022-10-19T10:51:17.889Z,6.70
2022-10-19T10:52:17.855Z,7.10
2022-10-19T10:53:17.856Z,7.50
2022-10-19T10:54:17.863Z,7.50
2022-10-19T10:55:17.836Z,5.60
2022-10-19T10:56:17.818Z,6.30
2022-10-19T10:57:17.849Z,7.40
2022-10-19T10:58:17.816Z,6.40
2022-10-19T10:59:17.814Z,7.70
2022-10-19T11:00:17.799Z,7.20
2022-10-19T11:01:17.799Z,7.20
2022-10-19T11:02:17.810Z,7.10
2022-10-19T11:03:17.764Z,8.70
2022-10-19T11:04:17.763Z,7.50
2022-10-19T11:05:17.772Z,7.40
2022-10-19T11:06:17.795Z,7.50
2022-10-19T11:07:17.747Z,8.60
2022-10-19T11:08:17.737Z,10.60
2022-10-19T11:09:17.737Z,10.60
2022-10-19T11:10:17.755Z,6.70
2022-10-19T11:11:17.715Z,8.70
2022-10-19T11:12:17.712Z,7.30
2022-10-19T11:13:17.694Z,10.60
2022-10-19T11:14:17.689Z,7.80
2022-10-19T11:15:17.775Z,8.70
2022-10-19T11:16:17.729Z,7.30
2022-10-19T11:17:17.664Z,7.40
2022-10-19T11:18:17.706Z,7.60
2022-10-19T11:19:17.649Z,7.30
2022-10-19T11:20:17.659Z,9.30
2022-10-19T11:21:17.653Z,7.80
2022-10-19T11:22:17.655Z,8.20
2022-10-19T11:23:17.634Z,7.90
2022-10-19T11:24:17.662Z,8.00
2022-10-19T11:25:17.598Z,8.80
2022-10-19T11:26:17.616Z,9.20
2022-10-19T11:27:17.631Z,7.90
2022-10-19T11:28:17.578Z,9.40
2022-10-19T11:29:17.566Z,8.90
2022-10-19T11:30:17.571Z,7.50
2022-10-19T11:31:17.564Z,8.20
2022-10-19T11:32:17.554Z,7.70
2022-10-19T11:33:17.573Z,6.30
2022-10-19T11:34:18.060Z,9.80
2022-10-19T11:35:17.528Z,10.60
2022-10-19T11:36:17.522Z,7.00
2022-10-19T11:37:17.519Z,8.10
2022-10-19T11:38:20.705Z,6.90
2022-10-19T11:39:18.514Z,8.90
2022-10-19T11:40:21.842Z,8.10
2022-10-19T11:41:18.607Z,9.60
2022-10-19T11:42:17.482Z,11.50
2022-10-19T11:43:17.467Z,7.90
2022-10-19T11:44:17.537Z,7.60
2022-10-19T11:45:17.452Z,6.70
2022-10-19T11:46:17.452Z,8.50
2022-10-19T11:47:17.445Z,6.70
2022-10-19T11:48:17.440Z,7.80
2022-10-19T11:49:17.435Z,8.30
2022-10-19T11:50:17.459Z,7.60
2022-10-19T11:51:21.809Z,9.40
2022-10-19T11:52:17.402Z,8.50
2022-10-19T11:53:17.392Z,7.10
2022-10-19T11:54:17.389Z,6.20
2022-10-19T11:55:17.408Z,7.90
2022-10-19T11:56:17.391Z,7.20
2022-10-19T11:57:17.368Z,6.20
2022-10-19T11:58:17.359Z,4.50
2022-10-19T11:59:17.386Z,9.20
2022-10-19T12:00:37.704Z,6.30
2022-10-19T12:01:18.355Z,7.80
2022-10-19T12:02:17.441Z,8.60
2022-10-19T12:03:17.329Z,5.70
2022-10-19T12:04:17.317Z,8.10
2022-10-19T12:05:17.306Z,6.70
2022-10-19T12:06:17.298Z,6.90
2022-10-19T12:07:17.312Z,5.70
2022-10-19T12:08:17.299Z,8.60
2022-10-19T12:09:17.351Z,6.60
2022-10-19T12:10:17.274Z,9.80
2022-10-19T12:11:17.273Z,6.00
2022-10-19T12:12:17.286Z,8.90
2022-10-19T12:13:17.249Z,7.60
2022-10-19T12:14:17.252Z,7.60
2022-10-19T12:15:17.335Z,7.50
2022-10-19T12:16:17.233Z,6.30
2022-10-19T12:17:17.237Z,6.40
2022-10-19T12:18:17.243Z,7.50
2022-10-19T12:19:17.215Z,6.10
2022-10-19T12:20:19.709Z,7.90
2022-10-19T12:21:17.200Z,6.40
2022-10-19T12:22:17.192Z,6.20
2022-10-19T12:23:17.190Z,6.80
2022-10-19T12:24:17.175Z,7.00
2022-10-19T12:25:17.174Z,7.60
2022-10-19T12:27:17.149Z,7.20
2022-10-19T12:28:17.167Z,8.70
2022-10-19T12:29:17.127Z,5.80
2022-10-19T12:30:17.133Z,8.30
2022-10-19T12:31:17.118Z,6.40
2022-10-19T12:32:17.113Z,8.10
2022-10-19T12:33:17.123Z,6.60
2022-10-19T12:34:17.115Z,7.00
2022-10-19T12:35:17.219Z,7.20
2022-10-19T12:36:17.072Z,7.50
2022-10-19T12:37:17.072Z,9.80
2022-10-19T12:38:17.067Z,9.50
2022-10-19T12:39:17.064Z,9.60
2022-10-19T12:40:17.062Z,7.60
2022-10-19T12:41:17.037Z,7.80
2022-10-19T12:42:17.038Z,8.00
2022-10-19T12:43:17.022Z,7.20
2022-10-19T12:44:17.107Z,10.40
2022-10-19T12:45:17.024Z,6.60
2022-10-19T12:46:17.003Z,7.40
2022-10-19T12:47:17.008Z,6.10
2022-10-19T12:48:17.023Z,11.80
2022-10-19T12:49:16.978Z,10.50
2022-10-19T12:50:17.009Z,8.30
2022-10-19T12:51:16.957Z,7.00
2022-10-19T12:52:16.972Z,8.90
2022-10-19T12:53:16.998Z,6.40
2022-10-19T12:54:16.947Z,8.50
2022-10-19T12:55:16.950Z,11.20
2022-10-19T12:56:16.923Z,9.50
2022-10-19T12:57:21.902Z,7.80
2022-10-19T12:58:17.906Z,9.40
2022-10-19T12:59:16.931Z,8.00
2022-10-19T13:00:16.896Z,10.00
2022-10-19T13:01:16.977Z,9.90
2022-10-19T13:02:16.882Z,9.40
2022-10-19T13:03:16.887Z,7.10
2022-10-19T13:04:16.892Z,10.70
2022-10-19T13:05:16.853Z,7.60
2022-10-19T13:06:16.844Z,9.80
2022-10-19T13:07:16.834Z,8.10